Time;durP1;ratioP1;P1;durP2;ratioP2;P2;SDS_P1;SDS_P2;PMS_P1;PMS_P2;Temp;Humidity;BMP_temperature;BMP_pressure;BME280_temperature;BME280_humidity;BME280_pressure;Samples;Min_cycle;Max_cycle;Signal;HPM_P1;HPM_P2
2021/01/30 00:00:54;;;;;;;38.73;18.53;;;;;;;;;;5133745;27;20343;-81
2021/01/30 00:03:20;;;;;;;51.60;23.23;;;;;;;;;;5133428;27;20007;-81
2021/01/30 00:05:45;;;;;;;34.43;17.33;;;;;;;;;;5133096;27;20019;-81
2021/01/30 00:08:11;;;;;;;27.63;12.43;;;;;;;;;;5133802;27;20367;-81
2021/01/30 00:10:36;;;;;;;33.73;14.67;;;;;;;;;;5133198;27;20027;-81
2021/01/30 00:13:02;;;;;;;24.90;13.47;;;;;;;;;;5134369;27;20015;-81
2021/01/30 00:15:28;;;;;;;26.73;13.67;;;;;;;;;;5133099;27;20027;-81
2021/01/30 00:17:56;;;;;;;25.63;12.37;;;;;;;;;;5133254;27;20427;-81
2021/01/30 00:20:22;;;;;;;50.40;19.80;;;;;;;;;;5133038;27;20106;-81
2021/01/30 00:22:49;;;;;;;31.83;12.70;;;;;;;;;;5133064;27;20373;-81
2021/01/30 00:25:14;;;;;;;100.03;34.80;;;;;;;;;;5132954;27;20153;-81
2021/01/30 00:27:39;;;;;;;45.67;15.83;;;;;;;;;;5126633;27;20056;-81
2021/01/30 00:30:09;;;;;;;35.37;12.47;;;;;;;;;;5133525;27;20038;-81
2021/01/30 00:32:34;;;;;;;20.73;7.60;;;;;;;;;;5134208;27;20022;-81
2021/01/30 00:34:59;;;;;;;50.47;16.53;;;;;;;;;;5132657;27;20529;-81
2021/01/30 00:37:25;;;;;;;45.97;17.27;;;;;;;;;;5132674;27;20019;-81
2021/01/30 00:39:51;;;;;;;18.03;7.17;;;;;;;;;;5132595;27;20416;-80
2021/01/30 00:42:17;;;;;;;83.73;27.67;;;;;;;;;;5134016;27;20105;-81
2021/01/30 00:44:43;;;;;;;31.93;10.33;;;;;;;;;;5132600;27;20115;-81
2021/01/30 00:47:08;;;;;;;28.57;10.30;;;;;;;;;;5132333;27;20047;-81
2021/01/30 00:49:33;;;;;;;20.03;7.20;;;;;;;;;;5133797;27;20098;-81
2021/01/30 00:51:58;;;;;;;25.33;7.93;;;;;;;;;;5132398;27;20046;-81
2021/01/30 00:54:24;;;;;;;23.47;6.53;;;;;;;;;;5133846;27;20468;-81
2021/01/30 00:56:50;;;;;;;14.90;6.60;;;;;;;;;;5132293;27;20030;-81
2021/01/30 00:59:15;;;;;;;25.77;8.20;;;;;;;;;;5134000;27;20030;-81
2021/01/30 01:01:40;;;;;;;16.47;9.10;;;;;;;;;;5132390;27;20015;-81
2021/01/30 01:04:06;;;;;;;12.73;4.90;;;;;;;;;;5132078;27;20023;-81
2021/01/30 01:06:32;;;;;;;14.20;5.07;;;;;;;;;;5132468;27;20106;-81
2021/01/30 01:08:57;;;;;;;13.40;3.87;;;;;;;;;;5133541;27;20019;-81
2021/01/30 01:11:22;;;;;;;10.93;4.13;;;;;;;;;;5133525;28;20061;-81
2021/01/30 01:13:47;;;;;;;10.53;3.70;;;;;;;;;;5136096;27;20450;-81
2021/01/30 01:16:12;;;;;;;10.33;3.73;;;;;;;;;;5136477;27;20035;-81
2021/01/30 01:18:38;;;;;;;12.57;3.87;;;;;;;;;;5136660;27;20030;-81
2021/01/30 01:21:03;;;;;;;10.50;3.60;;;;;;;;;;5136121;27;20458;-81
2021/01/30 01:23:28;;;;;;;10.40;3.87;;;;;;;;;;5137902;27;20072;-81
2021/01/30 01:25:53;;;;;;;9.13;3.40;;;;;;;;;;5136537;27;20420;-81
2021/01/30 01:28:18;;;;;;;11.43;3.40;;;;;;;;;;5136283;27;20023;-81
2021/01/30 01:30:44;;;;;;;11.87;3.37;;;;;;;;;;5136107;27;20019;-81
2021/01/30 01:33:09;;;;;;;11.87;3.23;;;;;;;;;;5137151;27;20050;-81
2021/01/30 01:35:34;;;;;;;9.17;3.50;;;;;;;;;;5136123;27;20042;-82
2021/01/30 01:38:00;;;;;;;10.53;3.63;;;;;;;;;;5136196;27;20034;-81
2021/01/30 01:40:27;;;;;;;8.20;4.10;;;;;;;;;;5136046;27;20125;-81
2021/01/30 01:42:57;;;;;;;13.07;5.13;;;;;;;;;;5136082;27;20016;-81
2021/01/30 01:45:22;;;;;;;13.80;5.80;;;;;;;;;;5137275;27;20015;-81
2021/01/30 01:47:47;;;;;;;16.73;5.80;;;;;;;;;;5135792;27;20430;-81
2021/01/30 01:50:30;;;;;;;14.77;6.00;;;;;;;;;;5135890;27;20027;-81
2021/01/30 01:52:59;;;;;;;15.90;6.50;;;;;;;;;;5135915;27;20027;-81
2021/01/30 01:55:24;;;;;;;18.00;6.30;;;;;;;;;;5137033;27;20506;-81
2021/01/30 01:57:54;;;;;;;18.27;6.67;;;;;;;;;;5135845;27;20051;-81
2021/01/30 02:00:21;;;;;;;19.17;6.63;;;;;;;;;;5135035;27;20478;-81
2021/01/30 02:02:48;;;;;;;16.60;7.27;;;;;;;;;;5135754;27;20047;-81
2021/01/30 02:05:19;;;;;;;20.57;8.17;;;;;;;;;;5135487;27;20022;-81
2021/01/30 02:07:45;;;;;;;21.92;9.65;;;;;;;;;;5135508;27;20038;-81
2021/01/30 02:10:12;;;;;;;17.33;9.37;;;;;;;;;;5135501;27;20031;-81
2021/01/30 02:12:38;;;;;;;19.13;10.03;;;;;;;;;;5136663;27;20015;-81
2021/01/30 02:15:03;;;;;;;22.43;11.27;;;;;;;;;;5135303;27;20084;-81
2021/01/30 02:17:34;;;;;;;17.80;9.73;;;;;;;;;;5135587;27;20023;-81
2021/01/30 02:20:18;;;;;;;14.10;7.70;;;;;;;;;;5135248;27;20023;-81
2021/01/30 02:23:02;;;;;;;12.13;6.30;;;;;;;;;;5135076;27;20015;-81
2021/01/30 02:25:30;;;;;;;13.93;6.60;;;;;;;;;;5134685;27;20023;-81
2021/01/30 02:27:59;;;;;;;8.70;6.03;;;;;;;;;;5135037;27;20099;-81
2021/01/30 02:30:40;;;;;;;11.97;5.20;;;;;;;;;;5135442;27;20047;-81
2021/01/30 02:33:23;;;;;;;15.17;6.03;;;;;;;;;;5136527;27;20015;-81
2021/01/30 02:36:15;;;;;;;12.53;5.57;;;;;;;;;;5135229;27;20019;-81
2021/01/30 02:38:43;;;;;;;19.00;8.60;;;;;;;;;;5130973;27;20080;-81
2021/01/30 02:41:12;;;;;;;20.17;9.13;;;;;;;;;;5135098;27;20023;-81
2021/01/30 02:43:39;;;;;;;15.83;9.27;;;;;;;;;;5134922;27;20068;-81
2021/01/30 02:46:05;;;;;;;23.83;10.00;;;;;;;;;;5135192;27;20011;-81
2021/01/30 02:48:35;;;;;;;17.60;8.43;;;;;;;;;;5134907;27;20122;-82
2021/01/30 02:51:02;;;;;;;20.90;9.60;;;;;;;;;;5134977;27;20019;-81
2021/01/30 02:53:29;;;;;;;21.65;10.13;;;;;;;;;;5134382;27;20039;-81
2021/01/30 02:55:57;;;;;;;17.70;9.50;;;;;;;;;;5134507;27;20117;-82
2021/01/30 02:58:24;;;;;;;16.17;4.47;;;;;;;;;;5134811;27;20117;-81
2021/01/30 03:00:51;;;;;;;17.80;8.05;;;;;;;;;;5134664;27;20019;-82
2021/01/30 03:03:16;;;;;;;12.90;6.13;;;;;;;;;;5134646;27;20015;-81
2021/01/30 03:05:43;;;;;;;16.10;7.75;;;;;;;;;;5134317;27;20466;-81
2021/01/30 03:08:11;;;;;;;9.35;6.38;;;;;;;;;;5136002;27;20019;-81
2021/01/30 03:10:42;;;;;;;14.57;6.90;;;;;;;;;;5134178;27;20054;-81
2021/01/30 03:13:16;;;;;;;9.50;5.60;;;;;;;;;;5134394;27;20474;-81
2021/01/30 03:15:45;;;;;;;12.83;7.07;;;;;;;;;;5135753;27;20027;-81
2021/01/30 03:18:11;;;;;;;11.67;6.63;;;;;;;;;;5135567;27;20091;-81
2021/01/30 03:20:39;;;;;;;11.63;6.23;;;;;;;;;;5134350;27;20521;-81
2021/01/30 03:23:04;;;;;;;14.20;5.57;;;;;;;;;;5134008;27;20028;-81
2021/01/30 03:25:30;;;;;;;12.07;6.97;;;;;;;;;;5135634;27;20018;-81
2021/01/30 03:27:56;;;;;;;14.40;6.20;;;;;;;;;;5134070;27;20102;-81
2021/01/30 03:30:22;;;;;;;10.67;5.37;;;;;;;;;;5134197;27;20019;-81
2021/01/30 03:32:47;;;;;;;13.43;6.95;;;;;;;;;;5134134;27;20076;-81
2021/01/30 03:35:13;;;;;;;14.40;6.07;;;;;;;;;;5134754;27;20011;-81
2021/01/30 03:37:38;;;;;;;11.70;6.30;;;;;;;;;;5133424;27;20017;-81
2021/01/30 03:40:04;;;;;;;9.10;5.67;;;;;;;;;;5133517;27;20019;-81
2021/01/30 03:42:29;;;;;;;9.57;5.75;;;;;;;;;;5133857;27;20026;-81
2021/01/30 03:44:55;;;;;;;15.43;6.22;;;;;;;;;;5133730;27;20485;-82
2021/01/30 03:47:20;;;;;;;10.90;6.70;;;;;;;;;;5133788;27;20513;-82
2021/01/30 03:49:45;;;;;;;8.85;5.80;;;;;;;;;;5135066;27;20386;-81
2021/01/30 03:52:11;;;;;;;8.85;5.65;;;;;;;;;;5135097;27;20019;-81
2021/01/30 03:54:36;;;;;;;11.50;6.40;;;;;;;;;;5133760;27;20502;-81
2021/01/30 03:57:01;;;;;;;8.63;5.18;;;;;;;;;;5133476;27;20428;-81
2021/01/30 03:59:26;;;;;;;8.88;5.65;;;;;;;;;;5129028;27;20024;-81
2021/01/30 04:01:51;;;;;;;8.45;4.22;;;;;;;;;;5130076;27;20015;-81
2021/01/30 04:04:17;;;;;;;10.32;4.80;;;;;;;;;;5133352;27;20015;-81
2021/01/30 04:06:46;;;;;;;8.15;4.15;;;;;;;;;;5133412;27;20095;-81
2021/01/30 04:09:11;;;;;;;7.57;4.68;;;;;;;;;;5133132;27;20034;-82
2021/01/30 04:11:39;;;;;;;9.15;4.28;;;;;;;;;;5133213;27;20038;-81
2021/01/30 04:14:04;;;;;;;9.02;4.72;;;;;;;;;;5133341;27;20443;-81
2021/01/30 04:16:29;;;;;;;8.60;5.35;;;;;;;;;;5134587;27;20057;-81
2021/01/30 04:18:54;;;;;;;7.32;4.68;;;;;;;;;;5132938;27;20363;-82
2021/01/30 04:21:20;;;;;;;5.60;3.92;;;;;;;;;;5133072;27;20023;-81
2021/01/30 04:23:46;;;;;;;7.15;4.07;;;;;;;;;;5132909;27;20011;-81
2021/01/30 04:26:12;;;;;;;8.68;5.93;;;;;;;;;;5133057;27;20026;-81
2021/01/30 04:28:37;;;;;;;11.82;5.40;;;;;;;;;;5134191;27;20461;-81
2021/01/30 04:31:03;;;;;;;8.07;5.25;;;;;;;;;;5132889;27;20029;-81
2021/01/30 04:33:28;;;;;;;9.30;5.50;;;;;;;;;;5133129;27;20023;-81
2021/01/30 04:35:53;;;;;;;11.60;5.55;;;;;;;;;;5132608;27;20022;-81
2021/01/30 04:38:18;;;;;;;14.32;6.63;;;;;;;;;;5133278;27;20428;-81
2021/01/30 04:40:44;;;;;;;12.02;5.25;;;;;;;;;;5132642;27;20102;-81
2021/01/30 04:43:21;;;;;;;11.63;5.90;;;;;;;;;;5132808;27;20354;-81
2021/01/30 04:46:05;;;;;;;8.90;5.53;;;;;;;;;;5132792;27;20023;-81
2021/01/30 04:48:33;;;;;;;5.00;3.33;;;;;;;;;;5132411;27;20020;-81
2021/01/30 04:51:07;;;;;;;7.55;3.85;;;;;;;;;;5132546;27;20058;-81
2021/01/30 04:53:48;;;;;;;6.85;4.10;;;;;;;;;;5132771;27;20413;-81
2021/01/30 04:56:22;;;;;;;8.75;4.93;;;;;;;;;;5132157;27;20018;-81
2021/01/30 04:58:50;;;;;;;7.40;4.13;;;;;;;;;;5122578;27;20069;-81
2021/01/30 05:01:24;;;;;;;11.98;5.10;;;;;;;;;;5133696;27;20083;-81
2021/01/30 05:03:50;;;;;;;9.30;4.63;;;;;;;;;;5132594;27;20020;-81
2021/01/30 05:06:17;;;;;;;11.55;6.00;;;;;;;;;;5132380;27;20042;-81
2021/01/30 05:08:45;;;;;;;7.78;4.65;;;;;;;;;;5133625;27;20484;-81
2021/01/30 05:11:13;;;;;;;8.05;4.95;;;;;;;;;;5132362;28;20069;-81
2021/01/30 05:13:43;;;;;;;9.23;4.72;;;;;;;;;;5132412;28;20420;-81
2021/01/30 05:16:12;;;;;;;12.18;5.10;;;;;;;;;;5132421;28;20054;-81
2021/01/30 05:18:41;;;;;;;8.23;4.88;;;;;;;;;;5128985;27;20458;-80
2021/01/30 05:21:16;;;;;;;9.45;5.28;;;;;;;;;;5122979;28;20367;-81
2021/01/30 05:23:43;;;;;;;10.68;5.45;;;;;;;;;;5132193;28;20106;-81
2021/01/30 05:26:10;;;;;;;9.75;5.20;;;;;;;;;;5133514;27;20076;-82
2021/01/30 05:28:57;;;;;;;6.40;4.93;;;;;;;;;;5132173;28;20027;-82
2021/01/30 05:31:30;;;;;;;8.75;5.03;;;;;;;;;;5132244;28;20027;-82
2021/01/30 05:34:05;;;;;;;7.43;4.88;;;;;;;;;;5131856;28;20038;-82
2021/01/30 05:36:46;;;;;;;9.07;5.87;;;;;;;;;;5132247;28;20470;-81
2021/01/30 05:39:17;;;;;;;13.57;6.55;;;;;;;;;;5132042;28;20020;-82
2021/01/30 05:41:45;;;;;;;12.60;5.70;;;;;;;;;;5132312;28;20023;-82
2021/01/30 05:44:14;;;;;;;9.55;6.68;;;;;;;;;;5133343;28;20015;-82
2021/01/30 05:46:39;;;;;;;8.00;5.85;;;;;;;;;;5133513;27;20050;-82
2021/01/30 05:49:09;;;;;;;10.18;7.05;;;;;;;;;;5131800;28;20047;-81
2021/01/30 05:51:53;;;;;;;11.18;7.50;;;;;;;;;;5132179;28;20023;-82
2021/01/30 05:54:19;;;;;;;12.32;8.27;;;;;;;;;;5132038;28;20031;-81
2021/01/30 05:56:44;;;;;;;8.45;5.85;;;;;;;;;;5133472;28;20472;-82
2021/01/30 05:59:17;;;;;;;9.90;7.95;;;;;;;;;;5132778;27;20034;-82
2021/01/30 06:01:42;;;;;;;10.70;8.30;;;;;;;;;;5135818;27;20083;-82
2021/01/30 06:04:08;;;;;;;10.73;8.27;;;;;;;;;;5135666;27;20464;-82
2021/01/30 06:06:37;;;;;;;11.70;8.75;;;;;;;;;;5135876;27;20023;-82
2021/01/30 06:09:22;;;;;;;11.18;8.13;;;;;;;;;;5135723;27;20065;-82
2021/01/30 06:11:48;;;;;;;14.10;9.77;;;;;;;;;;5134736;27;20030;-81
2021/01/30 06:14:28;;;;;;;13.07;9.05;;;;;;;;;;5135972;27;20030;-82
2021/01/30 06:16:59;;;;;;;11.95;8.45;;;;;;;;;;5135389;27;20030;-82
2021/01/30 06:19:24;;;;;;;10.45;7.82;;;;;;;;;;5135633;27;20023;-82
2021/01/30 06:22:07;;;;;;;13.05;9.95;;;;;;;;;;5135406;27;20484;-82
2021/01/30 06:24:33;;;;;;;10.00;7.22;;;;;;;;;;5135604;27;20023;-82
2021/01/30 06:27:02;;;;;;;13.25;9.18;;;;;;;;;;5136633;27;20496;-81
2021/01/30 06:29:30;;;;;;;13.20;9.70;;;;;;;;;;5135213;27;20041;-82
2021/01/30 06:32:03;;;;;;;11.90;7.30;;;;;;;;;;5135192;27;20381;-82
2021/01/30 06:34:30;;;;;;;11.35;8.20;;;;;;;;;;5135307;27;20015;-81
2021/01/30 06:36:56;;;;;;;13.32;8.95;;;;;;;;;;5135229;27;20484;-81
2021/01/30 06:39:32;;;;;;;13.55;9.00;;;;;;;;;;5136514;27;20019;-82
2021/01/30 06:42:02;;;;;;;20.80;8.60;;;;;;;;;;5135074;27;20015;-81
2021/01/30 06:44:29;;;;;;;14.82;9.18;;;;;;;;;;5135035;27;20079;-82
2021/01/30 06:47:13;;;;;;;15.18;8.82;;;;;;;;;;5135052;27;20019;-81
2021/01/30 06:49:38;;;;;;;17.15;11.50;;;;;;;;;;5136251;27;20019;-82
2021/01/30 06:52:04;;;;;;;12.88;7.80;;;;;;;;;;5128566;27;20497;-82
2021/01/30 06:54:29;;;;;;;15.30;10.18;;;;;;;;;;5134780;27;20114;-82
2021/01/30 06:57:05;;;;;;;15.95;10.07;;;;;;;;;;5136234;27;20513;-82
2021/01/30 06:59:57;;;;;;;22.05;11.73;;;;;;;;;;5134354;27;20394;-81
2021/01/30 07:02:29;;;;;;;15.32;9.65;;;;;;;;;;5130940;27;20031;-82
2021/01/30 07:05:06;;;;;;;16.60;10.50;;;;;;;;;;5134758;27;20012;-82
2021/01/30 07:07:43;;;;;;;18.65;11.75;;;;;;;;;;5135809;27;20049;-82
2021/01/30 07:10:24;;;;;;;17.30;11.77;;;;;;;;;;5133868;27;20047;-82
2021/01/30 07:12:55;;;;;;;21.08;13.57;;;;;;;;;;5134896;27;20023;-82
2021/01/30 07:15:26;;;;;;;18.95;11.85;;;;;;;;;;5134373;27;20046;-81
2021/01/30 07:17:59;;;;;;;20.20;12.88;;;;;;;;;;5135902;27;20024;-82
2021/01/30 07:20:24;;;;;;;;;;;;;;;;;;5134481;27;20026;-82
2021/01/30 07:22:53;;;;;;;16.92;10.98;;;;;;;;;;5134181;27;19907;-82
2021/01/30 07:25:20;;;;;;;19.50;13.20;;;;;;;;;;5134248;27;20239;-82
2021/01/30 07:27:50;;;;;;;18.80;12.55;;;;;;;;;;5134275;27;20015;-82
2021/01/30 07:30:41;;;;;;;18.55;13.10;;;;;;;;;;5133619;27;20068;-82
2021/01/30 07:33:10;;;;;;;22.55;15.77;;;;;;;;;;5103085;27;20051;-82
2021/01/30 07:35:37;;;;;;;16.42;10.93;;;;;;;;;;5134220;27;20446;-81
2021/01/30 07:38:14;;;;;;;18.30;12.27;;;;;;;;;;5135352;27;20023;-82
2021/01/30 07:40:41;;;;;;;25.42;15.23;;;;;;;;;;5133827;27;20022;-81
2021/01/30 07:43:10;;;;;;;23.90;14.30;;;;;;;;;;5135328;27;20068;-81
2021/01/30 07:45:38;;;;;;;20.42;13.82;;;;;;;;;;5133743;27;20011;-82
2021/01/30 07:48:12;;;;;;;23.60;15.10;;;;;;;;;;5133860;27;20107;-81
2021/01/30 07:50:39;;;;;;;22.05;14.68;;;;;;;;;;5134676;27;20030;-82
2021/01/30 07:53:07;;;;;;;20.30;13.63;;;;;;;;;;5135087;27;20022;-82
2021/01/30 07:55:32;;;;;;;20.77;14.13;;;;;;;;;;5133769;27;20515;-82
2021/01/30 07:58:16;;;;;;;21.27;14.65;;;;;;;;;;5133599;27;20019;-82
2021/01/30 08:00:49;;;;;;;18.15;12.20;;;;;;;;;;5133228;27;20033;-82
2021/01/30 08:03:20;;;;;;;20.30;12.93;;;;;;;;;;5134952;27;20075;-82
2021/01/30 08:06:05;;;;;;;19.85;13.18;;;;;;;;;;5133235;27;20015;-82
2021/01/30 08:08:41;;;;;;;18.33;10.75;;;;;;;;;;5118514;27;20033;-82
2021/01/30 08:11:22;;;;;;;20.35;12.93;;;;;;;;;;5132216;27;20359;-82
2021/01/30 08:14:14;;;;;;;18.15;12.45;;;;;;;;;;5131018;27;20019;-82
2021/01/30 08:16:47;;;;;;;23.20;14.23;;;;;;;;;;5131994;27;20027;-81
2021/01/30 08:19:19;;;;;;;18.70;12.93;;;;;;;;;;5155714;27;20027;-82
2021/01/30 08:21:52;;;;;;;21.73;13.77;;;;;;;;;;5131885;27;20050;-81
2021/01/30 08:24:25;;;;;;;21.88;14.05;;;;;;;;;;5130639;27;20058;-82
2021/01/30 08:26:54;;;;;;;18.98;13.05;;;;;;;;;;5131698;27;20060;-82
2021/01/30 08:29:22;;;;;;;20.30;12.80;;;;;;;;;;5132845;27;20120;-82
2021/01/30 08:31:54;;;;;;;17.33;11.95;;;;;;;;;;5131377;27;20019;-82
2021/01/30 08:34:19;;;;;;;;;;;;;;;;;;5132748;27;20351;-82
2021/01/30 08:36:51;;;;;;;18.75;13.18;;;;;;;;;;5130071;27;20418;-82
2021/01/30 08:39:33;;;;;;;22.90;14.55;;;;;;;;;;5132072;27;20251;-82
2021/01/30 08:41:58;;;;;;;21.98;14.40;;;;;;;;;;5131990;27;20020;-82
2021/01/30 08:44:33;;;;;;;20.88;13.57;;;;;;;;;;5132036;27;20030;-82
2021/01/30 08:47:21;;;;;;;22.63;14.52;;;;;;;;;;5131974;27;20033;-82
2021/01/30 08:49:58;;;;;;;23.13;14.95;;;;;;;;;;5101087;27;20109;-81
2021/01/30 08:52:43;;;;;;;19.95;11.65;;;;;;;;;;5131545;27;20113;-82
2021/01/30 08:55:29;;;;;;;24.88;15.35;;;;;;;;;;5131923;27;20037;-81
2021/01/30 08:57:55;;;;;;;25.93;15.10;;;;;;;;;;5132274;27;20485;-84
2021/01/30 09:00:26;;;;;;;23.23;14.83;;;;;;;;;;5131846;27;20030;-82
2021/01/30 09:03:09;;;;;;;22.50;13.35;;;;;;;;;;5131668;27;20068;-82
2021/01/30 09:05:36;;;;;;;23.50;14.27;;;;;;;;;;5132448;27;20481;-82
2021/01/30 09:08:11;;;;;;;22.77;12.88;;;;;;;;;;5131876;27;20015;-82
2021/01/30 09:10:37;;;;;;;27.00;17.20;;;;;;;;;;5133221;27;20075;-82
2021/01/30 09:13:04;;;;;;;23.33;15.55;;;;;;;;;;5129721;27;20167;-82
2021/01/30 09:15:42;;;;;;;26.80;16.42;;;;;;;;;;5132158;28;20015;-82
2021/01/30 09:18:14;;;;;;;25.70;16.35;;;;;;;;;;5131705;27;20030;-82
2021/01/30 09:20:51;;;;;;;27.23;17.23;;;;;;;;;;5131977;28;20469;-82
2021/01/30 09:23:19;;;;;;;20.77;12.10;;;;;;;;;;5127869;27;20031;-82
2021/01/30 09:25:56;;;;;;;24.27;14.82;;;;;;;;;;5132245;28;20354;-82
2021/01/30 09:28:21;;;;;;;24.52;15.65;;;;;;;;;;5127516;27;20450;-82
2021/01/30 09:31:22;;;;;;;21.27;13.43;;;;;;;;;;5132270;27;20047;-82
2021/01/30 09:34:07;;;;;;;23.42;15.05;;;;;;;;;;5054807;28;20120;-82
2021/01/30 09:36:53;;;;;;;29.73;15.63;;;;;;;;;;5117235;27;20034;-82
2021/01/30 09:39:29;;;;;;;26.35;14.43;;;;;;;;;;5140419;27;20367;-82
2021/01/30 09:42:13;;;;;;;33.20;17.08;;;;;;;;;;5135678;27;20423;-82
2021/01/30 09:44:38;;;;;;;27.98;17.15;;;;;;;;;;5136217;27;20030;-82
2021/01/30 09:47:14;;;;;;;25.92;16.10;;;;;;;;;;5121341;27;20381;-82
2021/01/30 09:49:41;;;;;;;26.20;15.95;;;;;;;;;;5137504;27;20023;-82
2021/01/30 09:52:07;;;;;;;27.55;16.30;;;;;;;;;;5137289;27;20454;-82
2021/01/30 09:54:33;;;;;;;24.33;14.77;;;;;;;;;;5136004;27;20007;-82
2021/01/30 09:57:02;;;;;;;30.33;18.70;;;;;;;;;;5136040;27;20374;-82
2021/01/30 09:59:28;;;;;;;25.52;15.73;;;;;;;;;;5137067;27;20023;-81
2021/01/30 10:02:05;;;;;;;26.00;16.33;;;;;;;;;;5135854;27;20038;-82
2021/01/30 10:04:30;;;;;;;26.42;15.88;;;;;;;;;;5137040;27;20016;-82
2021/01/30 10:07:09;;;;;;;29.00;17.77;;;;;;;;;;5135580;27;20019;-82
2021/01/30 10:09:41;;;;;;;25.10;16.13;;;;;;;;;;5135514;27;20023;-82
2021/01/30 10:12:06;;;;;;;31.43;19.27;;;;;;;;;;5135889;27;20016;-82
2021/01/30 10:14:39;;;;;;;23.02;15.15;;;;;;;;;;5128444;27;20745;-82
2021/01/30 10:17:11;;;;;;;25.88;15.32;;;;;;;;;;5135380;27;20378;-82
2021/01/30 10:19:37;;;;;;;30.85;19.45;;;;;;;;;;5135659;27;20106;-82
2021/01/30 10:22:19;;;;;;;30.23;19.30;;;;;;;;;;5135382;27;20026;-81
2021/01/30 10:24:44;;;;;;;26.17;14.90;;;;;;;;;;5135400;27;20473;-81
2021/01/30 10:27:16;;;;;;;24.60;15.70;;;;;;;;;;5136313;27;20038;-82
2021/01/30 10:29:41;;;;;;;27.60;17.37;;;;;;;;;;5135245;27;20106;-82
2021/01/30 10:32:08;;;;;;;28.85;18.42;;;;;;;;;;5135059;27;20267;-82
2021/01/30 10:34:46;;;;;;;29.33;18.27;;;;;;;;;;5136448;27;20035;-81
2021/01/30 10:37:16;;;;;;;27.30;14.97;;;;;;;;;;5134954;27;20466;-81
2021/01/30 10:39:50;;;;;;;22.50;14.43;;;;;;;;;;5135012;27;20485;-81
2021/01/30 10:42:20;;;;;;;27.58;17.77;;;;;;;;;;5134835;27;20090;-82
2021/01/30 10:44:47;;;;;;;30.05;18.70;;;;;;;;;;5136270;27;20012;-82
2021/01/30 10:47:13;;;;;;;27.73;17.67;;;;;;;;;;5134812;27;20098;-82
2021/01/30 10:49:39;;;;;;;28.83;18.23;;;;;;;;;;5136437;27;20019;-81
2021/01/30 10:52:04;;;;;;;23.75;13.45;;;;;;;;;;5134595;27;20075;-81
2021/01/30 10:54:30;;;;;;;23.95;15.55;;;;;;;;;;5135932;27;20038;-81
2021/01/30 10:57:03;;;;;;;28.73;16.90;;;;;;;;;;5134701;27;20106;-82
2021/01/30 10:59:39;;;;;;;27.67;17.23;;;;;;;;;;5134360;27;20010;-82
2021/01/30 11:02:25;;;;;;;28.75;17.75;;;;;;;;;;5134604;27;20023;-82
2021/01/30 11:05:22;;;;;;;25.90;15.73;;;;;;;;;;5117759;27;20015;-82
2021/01/30 11:07:53;;;;;;;25.73;16.77;;;;;;;;;;5089378;27;20019;-82
2021/01/30 11:10:21;;;;;;;23.65;11.82;;;;;;;;;;5135245;27;20027;-82
2021/01/30 11:12:46;;;;;;;22.98;14.35;;;;;;;;;;5134449;27;20114;-82
2021/01/30 11:15:19;;;;;;;22.10;14.45;;;;;;;;;;5134182;27;20114;-82
2021/01/30 11:17:45;;;;;;;24.50;14.85;;;;;;;;;;5135228;27;20023;-82
2021/01/30 11:20:11;;;;;;;21.65;14.70;;;;;;;;;;5133712;27;20502;-84
2021/01/30 11:22:36;;;;;;;26.13;16.35;;;;;;;;;;5133511;27;20015;-83
2021/01/30 11:25:04;;;;;;;22.52;14.65;;;;;;;;;;5133522;27;20023;-82
2021/01/30 11:27:33;;;;;;;23.63;13.82;;;;;;;;;;5134165;27;20071;-82
2021/01/30 11:29:58;;;;;;;19.17;12.40;;;;;;;;;;5135284;27;20019;-82
2021/01/30 11:32:24;;;;;;;20.13;13.88;;;;;;;;;;5134505;27;20200;-83
2021/01/30 11:34:56;;;;;;;22.48;14.35;;;;;;;;;;5134070;27;20026;-83
2021/01/30 11:37:22;;;;;;;19.13;13.60;;;;;;;;;;5133590;27;20019;-83
2021/01/30 11:39:47;;;;;;;26.13;17.52;;;;;;;;;;5133923;27;20023;-83
2021/01/30 11:42:13;;;;;;;21.10;15.25;;;;;;;;;;5133296;27;20031;-82
2021/01/30 11:44:38;;;;;;;23.60;14.13;;;;;;;;;;5133602;27;20098;-82
2021/01/30 11:47:03;;;;;;;17.63;10.88;;;;;;;;;;5133502;27;20065;-82
2021/01/30 11:49:28;;;;;;;17.17;11.57;;;;;;;;;;5133545;27;20458;-82
2021/01/30 11:51:53;;;;;;;18.55;12.60;;;;;;;;;;5133702;27;20022;-82
2021/01/30 11:54:19;;;;;;;16.38;10.95;;;;;;;;;;5133429;27;20203;-82
2021/01/30 11:56:44;;;;;;;22.90;11.20;;;;;;;;;;5130753;27;20015;-82
2021/01/30 11:59:12;;;;;;;16.25;11.15;;;;;;;;;;5132528;27;20030;-82
2021/01/30 12:01:37;;;;;;;15.63;10.95;;;;;;;;;;5133707;27;20027;-83
2021/01/30 12:04:02;;;;;;;15.38;10.77;;;;;;;;;;5133318;27;20038;-81
2021/01/30 12:06:28;;;;;;;17.88;10.57;;;;;;;;;;5133621;27;20339;-82
2021/01/30 12:08:53;;;;;;;16.20;11.75;;;;;;;;;;5132743;27;20025;-82
2021/01/30 12:11:19;;;;;;;19.30;12.40;;;;;;;;;;5136552;27;20367;-81
2021/01/30 12:13:44;;;;;;;20.58;10.27;;;;;;;;;;5130217;27;21207;-81
2021/01/30 12:16:10;;;;;;;14.38;10.35;;;;;;;;;;5126764;27;20027;-81
2021/01/30 12:18:35;;;;;;;14.75;10.23;;;;;;;;;;5131933;27;20076;-80
2021/01/30 12:21:01;;;;;;;14.75;9.68;;;;;;;;;;5133577;27;20378;-81
2021/01/30 12:23:27;;;;;;;14.55;10.40;;;;;;;;;;5126088;27;20025;-81
2021/01/30 12:25:52;;;;;;;11.98;7.55;;;;;;;;;;5133162;27;20097;-81
2021/01/30 12:28:19;;;;;;;14.05;9.32;;;;;;;;;;5131444;27;20438;-81
2021/01/30 12:30:44;;;;;;;17.63;12.18;;;;;;;;;;5133300;27;20109;-81
2021/01/30 12:33:10;;;;;;;15.30;9.88;;;;;;;;;;5135028;27;20039;-82
2021/01/30 12:35:35;;;;;;;15.35;11.20;;;;;;;;;;5138424;27;20031;-81
2021/01/30 12:38:01;;;;;;;15.93;9.77;;;;;;;;;;5132168;27;20030;-81
2021/01/30 12:40:28;;;;;;;13.73;8.93;;;;;;;;;;5130748;27;20458;-81
2021/01/30 12:42:54;;;;;;;13.77;10.05;;;;;;;;;;5134092;27;20030;-81
2021/01/30 12:45:19;;;;;;;20.88;11.13;;;;;;;;;;5131664;27;20027;-81
2021/01/30 12:47:45;;;;;;;17.75;12.45;;;;;;;;;;5132186;27;20469;-81
2021/01/30 12:50:12;;;;;;;19.05;11.75;;;;;;;;;;5130415;27;20062;-81
2021/01/30 12:52:37;;;;;;;14.88;9.15;;;;;;;;;;5138241;27;20431;-81
2021/01/30 12:55:03;;;;;;;14.00;10.10;;;;;;;;;;5132641;27;20038;-81
2021/01/30 12:57:28;;;;;;;15.60;10.93;;;;;;;;;;5130655;27;20027;-81
2021/01/30 12:59:53;;;;;;;12.70;9.15;;;;;;;;;;5130437;27;20023;-81
2021/01/30 13:02:18;;;;;;;13.40;9.32;;;;;;;;;;5130295;27;20019;-81
2021/01/30 13:04:44;;;;;;;19.00;10.88;;;;;;;;;;5131369;27;20015;-81
2021/01/30 13:07:09;;;;;;;12.70;8.20;;;;;;;;;;5130983;27;20016;-82
2021/01/30 13:09:34;;;;;;;14.27;9.10;;;;;;;;;;5131540;27;20531;-81
2021/01/30 13:11:59;;;;;;;13.43;10.10;;;;;;;;;;5128829;27;20458;-81
2021/01/30 13:14:25;;;;;;;13.10;9.32;;;;;;;;;;5131837;27;20026;-81
2021/01/30 13:16:51;;;;;;;10.95;7.93;;;;;;;;;;5132156;28;20037;-81
2021/01/30 13:19:16;;;;;;;16.55;8.55;;;;;;;;;;5132842;27;20043;-81
2021/01/30 13:21:46;;;;;;;14.45;10.13;;;;;;;;;;5130797;27;20057;-82
2021/01/30 13:24:11;;;;;;;10.27;7.55;;;;;;;;;;5137331;27;20015;-81
2021/01/30 13:26:39;;;;;;;13.38;9.00;;;;;;;;;;5131236;27;20019;-81
2021/01/30 13:29:04;;;;;;;12.90;9.35;;;;;;;;;;5131845;27;20075;-81
2021/01/30 13:31:29;;;;;;;17.13;11.05;;;;;;;;;;5130447;27;20444;-81
2021/01/30 13:33:55;;;;;;;11.00;7.22;;;;;;;;;;5132719;27;20019;-81
2021/01/30 13:36:20;;;;;;;11.13;8.27;;;;;;;;;;5131282;27;20023;-81
2021/01/30 13:38:46;;;;;;;14.25;9.75;;;;;;;;;;5131983;28;20400;-82
2021/01/30 13:41:12;;;;;;;13.02;9.40;;;;;;;;;;5127759;27;20015;-81
2021/01/30 13:43:37;;;;;;;14.73;10.30;;;;;;;;;;5134007;27;20014;-81
2021/01/30 13:46:05;;;;;;;12.45;8.98;;;;;;;;;;5136128;27;20019;-81
2021/01/30 13:48:33;;;;;;;11.43;8.45;;;;;;;;;;5132581;27;20029;-81
2021/01/30 13:50:59;;;;;;;21.48;10.32;;;;;;;;;;5127234;27;20034;-81
2021/01/30 13:53:24;;;;;;;14.00;9.43;;;;;;;;;;5131782;27;20011;-81
2021/01/30 13:55:49;;;;;;;15.77;9.13;;;;;;;;;;5126169;27;20047;-81
2021/01/30 13:58:14;;;;;;;13.07;9.50;;;;;;;;;;5129528;27;20031;-81
2021/01/30 14:00:40;;;;;;;15.77;9.38;;;;;;;;;;5128048;27;20312;-81
2021/01/30 14:03:08;;;;;;;12.50;9.18;;;;;;;;;;5130007;27;20390;-81
2021/01/30 14:05:33;;;;;;;11.85;7.97;;;;;;;;;;5122738;27;20023;-81
2021/01/30 14:07:59;;;;;;;10.23;7.80;;;;;;;;;;5135508;27;20481;-82
2021/01/30 14:10:24;;;;;;;14.20;9.38;;;;;;;;;;5126905;27;20054;-81
2021/01/30 14:12:49;;;;;;;13.98;9.60;;;;;;;;;;5129241;27;20034;-81
2021/01/30 14:15:15;;;;;;;12.95;8.93;;;;;;;;;;5125002;28;20023;-81
2021/01/30 14:17:40;;;;;;;10.63;7.25;;;;;;;;;;5128390;27;20369;-81
2021/01/30 14:20:06;;;;;;;16.25;8.95;;;;;;;;;;5130237;27;20023;-81
2021/01/30 14:22:32;;;;;;;10.63;7.80;;;;;;;;;;5138925;27;20041;-82
2021/01/30 14:24:57;;;;;;;10.70;7.38;;;;;;;;;;5135441;27;20027;-81
2021/01/30 14:27:23;;;;;;;11.70;8.45;;;;;;;;;;5131192;27;20071;-81
2021/01/30 14:29:50;;;;;;;10.68;7.53;;;;;;;;;;5133762;27;20148;-81
2021/01/30 14:32:16;;;;;;;10.38;6.85;;;;;;;;;;5127975;27;20130;-81
2021/01/30 14:34:41;;;;;;;11.77;8.15;;;;;;;;;;5127155;27;20438;-81
2021/01/30 14:37:07;;;;;;;11.95;7.70;;;;;;;;;;5132236;27;20027;-81